Historyczne dane pomiarowe

Dodano dane terminowe – wersja testowa.

Dane z okresu 1951-2019

Wersja bazy: 1.34 [2019-03-16, lista zmian], aktualizacja planowana na 2019-04-15

Dane meteo z obszaru Polski uzyskane na podstawie danych udostępnionych przez Instytut Meteorologii i Gospodarki Wodnej – Państwowy Instytut Badawczy.

 

Wybierz Datę:    

       

TemperaturaWilgotnośćWiatrCiśnienieOpadyŚniegCzas trwania zjawisk
 Stacja t tx tn tng RH VA  wxwx mslp ppp RRR   cm mm wxwxwxwxwxwxwx
1999-08-14 11.2 17.1 3.7- 85.3- 2.3 1.7---- 0.0------------
1999-08-13 13.0 17.6 7.9- 84.0- 4.7 2.3---- 0.0------------
1999-08-12 14.4 18.1 11.0- 88.0- 6.0 3.0---- 0.0------------
1999-08-11 16.9 22.1 12.0- 93.3- 6.0 0.3---- 9.0------------
1999-08-10 20.6 27.5 14.0- 85.0- 4.0 3.7---- 14.6------------
1999-08-09 20.7 27.0 13.0- 88.3- 3.3 3.0---- 0.1------------
1999-08-08 20.0 23.5 17.2- 87.8- 4.3 3.7---- 0.0------------
1999-08-07 17.5 22.7 12.4- 91.8- 5.3 3.0---- 0.6------------
1999-08-06 17.4 22.4 12.6- 92.3- 6.7 3.3---- 12.8------------
1999-08-05 15.6 23.4 5.7- 85.0- 2.3 1.3---- 0.0------------
1999-08-04 15.1 21.5 7.9- 85.3- 4.7 2.3---- 0.0------------
1999-08-03 14.6 17.9 11.2- 90.8- 6.7 1.3---- 0.2------------
1999-08-02 12.9 17.4 8.1- 90.5- 6.7 1.3---- 2.8------------
1999-08-01 15.0 18.9 11.0- 88.8- 4.7 1.0---- 0.0------------
1999-07-31 14.5 20.4 5.4- 81.5- 3.3 2.3---- 0.8------------
1999-07-30 14.2 20.4 5.3- 82.0- 4.3 3.3---- 0.0------------
1999-07-29 15.8 20.4 10.0- 76.3- 4.7 3.0---- 0.0------------
1999-07-28 15.7 20.4 9.5- 90.8- 6.0 3.0---- 1.1------------
1999-07-27 17.2 22.0 12.1- 94.5- 8.0 3.3---- 0.0------------
1999-07-26 18.7 25.2 10.6- 81.8- 2.3 2.7---- 0.0------------
1999-07-25 16.1 21.9 8.3- 87.5- 4.0 1.0---- 0.0------------
1999-07-24 14.1 17.9 11.2- 89.0- 6.0 0.3---- 0.0------------
1999-07-23 14.0 18.4 11.6- 95.8- 8.0 1.7---- 24.1------------
1999-07-22 18.1 23.4 12.6- 89.0- 5.3 0.7---- 14.2------------
1999-07-21 19.0 26.5 11.0- 82.3- 3.3 3.3---- 5.8------------
1999-07-20 19.4 26.0 12.0- 75.5- 0.7 0.7---- 0.0------------
1999-07-19 17.1 25.0 6.9- 79.0- 1.0 1.3---- 0.0------------
1999-07-18 15.5 22.9 5.6- 79.0- 2.0 2.0---- 0.0------------
1999-07-17 13.8 20.9 5.4- 83.5- 4.7 0.7---- 0.0------------
1999-07-16 14.0 19.9 6.2- 84.3- 4.7 1.0---- 0.0------------
1999-07-15 15.3 19.4 10.0- 83.0- 5.3 4.7---- 0.0------------
1999-07-14 18.3 20.4 16.6- 91.5- 6.7 4.7---- 12.4------------
1999-07-13 18.8 22.7 13.2- 83.5- 5.3 4.0---- 1.8------------
1999-07-12 18.3 22.9 12.6- 88.8- 4.7 3.0---- 1.1------------
1999-07-11 17.5 20.7 11.5- 92.5- 6.0 1.7---- 8.4------------
1999-07-10 16.5 19.8 11.7- 91.0- 6.7 3.0---- 0.1------------
1999-07-09 18.6 22.6 15.0- 89.5- 5.3 3.0---- 0.0------------
1999-07-08 18.2 22.7 12.0- 89.3- 4.7 2.0---- 23.4------------
1999-07-07 21.3 26.9 16.8- 89.8- 6.3 3.3---- 35.8------------
1999-07-06 21.7 28.7 11.0- 69.0- 1.0 5.7---- 0.0------------
1999-07-05 21.7 28.4 13.0- 72.0- 0.3 3.0---- 0.0------------
1999-07-04 20.3 27.4 10.2- 76.8- 0.7 2.0---- 0.0------------
1999-07-03 17.0 23.5 8.3- 86.0- 2.7 1.0---- 0.0------------
1999-07-02 16.6 22.5 7.5- 87.0- 4.7 1.7---- 0.0------------
1999-07-01 16.3 22.7 7.7- 81.5- 3.0 1.7---- 0.0------------
1999-06-30 17.7 23.5 10.5- 79.8- 2.3 1.3---- 0.0------------
1999-06-29 17.2 21.8 12.0- 83.0- 3.7 4.7---- 0.0------------
1999-06-28 18.2 25.0 10.0- 81.0- 2.7 1.7---- 0.0------------
1999-06-27 17.2 24.0 7.5- 73.3- 1.0 3.0---- 0.0------------
1999-06-26 13.9 20.9 3.7- 73.8- 2.0 2.0---- 0.0------------
1999-06-25 13.8 21.1 7.5- 73.3- 4.0 3.7---- 0.0------------
1999-06-24 8.7 9.5 7.7- 93.0- 8.0 4.3---- 14.9------------
1999-06-23 8.0 9.4 6.4- 95.5- 8.0 7.3---- 15.1------------
1999-06-22 11.3 14.5 8.1- 95.3- 8.0 5.0---- 18.9------------
1999-06-21 16.4 22.9 12.6- 85.8- 7.3 2.0---- 18.6------------
1999-06-20 17.1 21.9 13.0- 85.8- 6.0 3.0---- 0.0------------
1999-06-19 16.3 20.5 13.5- 89.0- 5.3 4.0---- 0.0------------
1999-06-18 17.1 22.2 13.6- 90.5- 8.0 1.0---- 8.5------------
1999-06-17 17.7 21.1 14.3- 94.0- 6.7 1.7---- 7.7------------
1999-06-16 17.4 19.5 15.2- 93.5- 7.3 1.0---- 0.2------------
354.8 ms

 

Źródłem pochodzenia danych jest Instytut Meteorologii i Gospodarki Wodnej – Państwowy Instytut Badawczy. Dane Instytutu Meteorologii i Gospodarki Wodnej – Państwowego Instytutu Badawczego zostały przetworzone.

Dane źródłowe można odnaleźć na stronie https://dane.imgw.pl